Time;durP1;ratioP1;P1;durP2;ratioP2;P2;SDS_P1;SDS_P2;PMS_P1;PMS_P2;Temp;Humidity;BMP_temperature;BMP_pressure;BME280_temperature;BME280_humidity;BME280_pressure;Samples;Min_cycle;Max_cycle;Signal;HPM_P1;HPM_P2
2023/01/22 00:01:51;;;;;;;;;;;20.20;99.90;;;;;;5093432;28;19923;-71
2023/01/22 00:04:18;;;;;;;;;;;20.40;99.90;;;;;;5093889;28;19969;-73
2023/01/22 00:06:44;;;;;;;;;;;20.50;99.90;;;;;;5076511;28;20339;-71
2023/01/22 00:09:11;;;;;;;;;;;20.60;99.90;;;;;;5093659;28;19912;-79
2023/01/22 00:11:38;;;;;;;;;;;20.70;99.90;;;;;;5082605;28;19982;-70
2023/01/22 00:14:04;;;;;;;;;;;20.70;99.90;;;;;;5073851;28;19923;-70
2023/01/22 00:16:31;;;;;;;;;;;20.60;99.90;;;;;;5073762;28;19912;-72
2023/01/22 00:18:58;;;;;;;;;;;20.70;99.90;;;;;;5073430;28;19917;-69
2023/01/22 00:21:26;;;;;;;;;;;20.80;99.90;;;;;;5073645;28;20002;-70
2023/01/22 00:23:53;;;;;;;;;;;20.90;99.90;;;;;;5087855;28;19922;-69
2023/01/22 00:26:19;;;;;;;;;;;21.00;99.90;;;;;;5091999;28;19912;-69
2023/01/22 00:28:46;;;;;;;;;;;21.00;99.90;;;;;;5093091;28;19915;-69
2023/01/22 00:31:14;;;;;;;;;;;21.00;99.90;;;;;;5092994;28;19908;-69
2023/01/22 00:33:41;;;;;;;;;;;21.20;99.90;;;;;;5079857;28;19921;-69
2023/01/22 00:36:09;;;;;;;;;;;21.20;99.90;;;;;;5073070;28;19909;-73
2023/01/22 00:38:37;;;;;;;;;;;21.20;99.90;;;;;;5073131;28;19931;-71
2023/01/22 00:41:05;;;;;;;;;;;21.20;99.90;;;;;;5073251;28;19909;-73
2023/01/22 00:43:32;;;;;;;;;;;21.30;99.90;;;;;;5073888;28;20281;-70
2023/01/22 00:45:59;;;;;;;;;;;21.20;99.90;;;;;;5085538;28;19923;-80
2023/01/22 00:48:26;;;;;;;;;;;21.20;99.90;;;;;;5093225;28;19909;-71
2023/01/22 00:50:53;;;;;;;;;;;21.30;99.90;;;;;;5093217;28;19911;-69
2023/01/22 00:53:19;;;;;;;;;;;21.40;99.90;;;;;;5093045;28;20356;-70
2023/01/22 00:55:59;;;;;;;;;;;21.40;99.90;;;;;;5093008;28;19914;-70
2023/01/22 00:58:26;;;;;;;;;;;21.30;99.90;;;;;;5077593;28;20014;-69
2023/01/22 01:00:53;;;;;;;;;;;21.40;99.90;;;;;;5079838;28;20377;-69
2023/01/22 01:03:26;;;;;;;;;;;21.50;99.90;;;;;;5074106;28;20273;-70
2023/01/22 01:06:12;;;;;;;;;;;21.60;99.90;;;;;;5073038;28;20010;-71
2023/01/22 01:08:41;;;;;;;;;;;21.80;99.90;;;;;;5073414;28;19944;-69
2023/01/22 01:11:10;;;;;;;;;;;21.80;99.90;;;;;;5082239;28;19924;-70
2023/01/22 01:13:37;;;;;;;;;;;21.90;99.90;;;;;;5075743;28;19912;-76
2023/01/22 01:16:06;;;;;;;;;;;22.00;99.90;;;;;;5076237;28;20018;-73
2023/01/22 01:18:33;;;;;;;;;;;22.00;99.90;;;;;;5075680;28;19971;-71
2023/01/22 01:21:00;;;;;;;;;;;22.10;99.90;;;;;;5076063;28;19927;-76
2023/01/22 01:23:27;;;;;;;;;;;22.20;99.90;;;;;;5076057;28;19924;-70
2023/01/22 01:25:54;;;;;;;;;;;22.20;99.90;;;;;;5076312;28;19956;-70
2023/01/22 01:28:21;;;;;;;;;;;22.10;99.90;;;;;;5074543;28;19940;-74
2023/01/22 01:30:48;;;;;;;;;;;22.00;99.90;;;;;;5071966;28;20003;-70
2023/01/22 01:33:14;;;;;;;;;;;22.00;99.90;;;;;;5075359;28;19935;-75
2023/01/22 01:35:41;;;;;;;;;;;22.00;99.90;;;;;;5076765;28;19913;-72
2023/01/22 01:38:08;;;;;;;;;;;22.00;99.90;;;;;;5078559;28;20462;-69
2023/01/22 01:40:34;;;;;;;;;;;21.90;99.90;;;;;;5086599;28;20453;-70
2023/01/22 01:43:01;;;;;;;;;;;22.00;99.90;;;;;;5073658;28;20300;-72
2023/01/22 01:45:31;;;;;;;;;;;21.90;99.90;;;;;;5086908;28;20300;-73
2023/01/22 01:47:58;;;;;;;;;;;21.90;99.90;;;;;;5091050;28;19909;-71
2023/01/22 01:50:26;;;;;;;;;;;21.90;99.90;;;;;;5088730;28;20384;-73
2023/01/22 01:52:52;;;;;;;;;;;21.70;99.90;;;;;;5078534;28;19908;-69
2023/01/22 01:55:22;;;;;;;;;;;21.70;99.90;;;;;;5091880;28;20296;-71
2023/01/22 01:57:50;;;;;;;;;;;21.80;99.90;;;;;;5089410;28;19912;-70
2023/01/22 02:00:17;;;;;;;;;;;21.80;99.90;;;;;;5082664;28;19947;-72
2023/01/22 02:02:44;;;;;;;;;;;21.80;99.90;;;;;;5073119;28;19912;-70
2023/01/22 02:05:11;;;;;;;;;;;21.90;99.90;;;;;;5092103;28;19955;-71
2023/01/22 02:07:37;;;;;;;;;;;21.90;99.90;;;;;;5088574;28;19912;-69
2023/01/22 02:10:05;;;;;;;;;;;21.90;99.90;;;;;;5089115;28;20331;-71
2023/01/22 02:12:32;;;;;;;;;;;21.90;99.90;;;;;;5091480;28;19909;-71
2023/01/22 02:15:02;;;;;;;;;;;21.90;99.90;;;;;;5082633;28;20254;-76
2023/01/22 02:17:30;;;;;;;;;;;22.00;99.90;;;;;;5079125;28;20450;-70
2023/01/22 02:19:57;;;;;;;;;;;22.00;99.90;;;;;;5084111;28;20431;-70
2023/01/22 02:22:25;;;;;;;;;;;22.20;99.90;;;;;;5079182;28;19919;-71
2023/01/22 02:24:52;;;;;;;;;;;22.30;99.90;;;;;;5079890;28;19979;-71
2023/01/22 02:27:18;;;;;;;;;;;22.40;99.90;;;;;;5082461;28;20280;-71
2023/01/22 02:29:45;;;;;;;;;;;22.40;99.90;;;;;;5088346;28;19908;-70
2023/01/22 02:32:12;;;;;;;;;;;22.50;99.90;;;;;;5076893;28;20003;-72
2023/01/22 02:34:38;;;;;;;;;;;22.60;99.90;;;;;;5071668;28;19924;-72
2023/01/22 02:37:05;;;;;;;;;;;22.60;99.90;;;;;;5087258;28;20365;-69
2023/01/22 02:39:32;;;;;;;;;;;22.70;99.90;;;;;;5083203;28;20296;-70
2023/01/22 02:41:59;;;;;;;;;;;22.70;99.90;;;;;;5083106;28;19912;-71
2023/01/22 02:44:26;;;;;;;;;;;22.70;99.90;;;;;;5073984;28;20385;-71
2023/01/22 02:46:52;;;;;;;;;;;22.70;99.90;;;;;;5088409;28;20269;-72
2023/01/22 02:49:19;;;;;;;;;;;22.40;99.90;;;;;;5084745;28;20492;-70
2023/01/22 02:51:46;;;;;;;;;;;22.40;99.90;;;;;;5085478;28;19912;-71
2023/01/22 02:54:12;;;;;;;;;;;22.40;99.90;;;;;;5094879;28;20387;-71
2023/01/22 02:56:39;;;;;;;;;;;22.30;99.90;;;;;;5091625;28;20414;-70
2023/01/22 02:59:06;;;;;;;;;;;22.20;99.90;;;;;;5087437;28;19924;-71
2023/01/22 03:01:32;;;;;;;;;;;22.00;99.90;;;;;;5095002;28;19915;-71
2023/01/22 03:04:12;;;;;;;;;;;21.90;99.90;;;;;;5077309;28;20336;-72
2023/01/22 03:06:40;;;;;;;;;;;21.70;99.90;;;;;;5077714;28;20365;-71
2023/01/22 03:09:07;;;;;;;;;;;21.50;99.90;;;;;;5082777;28;19917;-71
2023/01/22 03:11:35;;;;;;;;;;;21.30;99.90;;;;;;5092838;28;20007;-72
2023/01/22 03:22:16;;;;;;;;;;;21.00;99.90;;;;;;5094850;28;19916;-71
2023/01/22 03:24:43;;;;;;;;;;;20.90;99.90;;;;;;5093383;28;20004;-70
2023/01/22 03:27:09;;;;;;;;;;;20.80;99.90;;;;;;5090859;28;19912;-71
2023/01/22 03:29:37;;;;;;;;;;;20.80;99.90;;;;;;5085488;28;19913;-72
2023/01/22 03:32:06;;;;;;;;;;;20.80;99.90;;;;;;5078171;28;19969;-72
2023/01/22 03:34:33;;;;;;;;;;;20.90;99.90;;;;;;5094197;28;19920;-71
2023/01/22 03:36:59;;;;;;;;;;;21.00;99.90;;;;;;5090532;28;20308;-71
2023/01/22 03:39:27;;;;;;;;;;;21.10;99.90;;;;;;5082677;28;19924;-71
2023/01/22 03:41:54;;;;;;;;;;;21.40;99.90;;;;;;5074523;28;20004;-70
2023/01/22 03:44:20;;;;;;;;;;;21.50;99.90;;;;;;5088369;28;20003;-70
2023/01/22 03:46:47;;;;;;;;;;;21.60;99.90;;;;;;5094041;28;19965;-70
2023/01/22 03:49:14;;;;;;;;;;;21.70;99.90;;;;;;5079857;28;19919;-75
2023/01/22 03:51:41;;;;;;;;;;;21.80;99.90;;;;;;5080813;28;19919;-72
2023/01/22 03:54:10;;;;;;;;;;;21.90;99.90;;;;;;5085531;28;20328;-71
2023/01/22 03:56:36;;;;;;;;;;;22.00;99.90;;;;;;5076838;28;19920;-70
2023/01/22 03:59:03;;;;;;;;;;;22.00;99.90;;;;;;5076892;28;20236;-74
2023/01/22 04:01:30;;;;;;;;;;;22.00;99.90;;;;;;5076082;28;19920;-76
2023/01/22 04:03:56;;;;;;;;;;;22.00;99.90;;;;;;5076085;28;19912;-70
2023/01/22 04:06:23;;;;;;;;;;;21.90;99.90;;;;;;5077665;28;19958;-78
2023/01/22 04:08:51;;;;;;;;;;;21.90;99.90;;;;;;5076047;28;20460;-71
2023/01/22 04:11:17;;;;;;;;;;;22.00;99.90;;;;;;5080818;28;19912;-77
2023/01/22 04:13:44;;;;;;;;;;;22.00;99.90;;;;;;5076339;28;19920;-71
2023/01/22 04:16:12;;;;;;;;;;;22.00;99.90;;;;;;5074191;28;19948;-74
2023/01/22 04:18:40;;;;;;;;;;;22.00;99.90;;;;;;5077751;28;19912;-72
2023/01/22 04:21:06;;;;;;;;;;;21.90;99.90;;;;;;5075761;28;20538;-70
2023/01/22 04:23:33;;;;;;;;;;;21.90;99.90;;;;;;5085895;28;19912;-72
2023/01/22 04:25:59;;;;;;;;;;;22.00;99.90;;;;;;5076910;28;19973;-70
2023/01/22 04:28:26;;;;;;;;;;;22.00;99.90;;;;;;5075660;28;20375;-71
2023/01/22 04:30:54;;;;;;;;;;;22.20;99.90;;;;;;5087571;28;20384;-72
2023/01/22 04:33:20;;;;;;;;;;;22.30;99.90;;;;;;5092235;28;19916;-70
2023/01/22 04:35:51;;;;;;;;;;;22.30;99.90;;;;;;5077017;28;19924;-71
2023/01/22 04:38:18;;;;;;;;;;;22.50;99.90;;;;;;5076019;28;19999;-76
2023/01/22 04:40:44;;;;;;;;;;;22.60;99.90;;;;;;5075435;28;19924;-76
2023/01/22 04:43:11;;;;;;;;;;;22.60;99.90;;;;;;5077276;28;19912;-78
2023/01/22 04:45:38;;;;;;;;;;;22.40;99.90;;;;;;5076212;28;19931;-70
2023/01/22 04:48:05;;;;;;;;;;;22.60;99.90;;;;;;5076091;28;20360;-74
2023/01/22 04:50:32;;;;;;;;;;;22.60;99.90;;;;;;5075669;28;20942;-72
2023/01/22 04:52:59;;;;;;;;;;;22.70;99.90;;;;;;5076060;28;19912;-69
2023/01/22 04:55:27;;;;;;;;;;;22.80;99.90;;;;;;5075278;28;19954;-71
2023/01/22 04:57:55;;;;;;;;;;;22.80;99.90;;;;;;5074413;28;19938;-69
2023/01/22 05:00:22;;;;;;;;;;;22.80;99.90;;;;;;5078147;28;20376;-71
2023/01/22 05:02:48;;;;;;;;;;;22.90;99.90;;;;;;5091020;28;19934;-70
2023/01/22 05:05:15;;;;;;;;;;;22.90;99.90;;;;;;5091897;28;19908;-69
2023/01/22 05:07:42;;;;;;;;;;;22.90;99.90;;;;;;5089348;28;19916;-74
2023/01/22 05:10:09;;;;;;;;;;;22.80;99.90;;;;;;5089635;28;19908;-68
2023/01/22 05:12:36;;;;;;;;;;;22.90;99.90;;;;;;5082502;28;19916;-69
2023/01/22 05:15:02;;;;;;;;;;;22.90;99.90;;;;;;5080259;28;19961;-72
2023/01/22 05:17:29;;;;;;;;;;;23.00;99.90;;;;;;5076736;28;20077;-69
2023/01/22 05:19:56;;;;;;;;;;;23.00;99.90;;;;;;5082818;28;20397;-68
2023/01/22 05:22:22;;;;;;;;;;;23.20;99.90;;;;;;5092130;28;20280;-69
2023/01/22 05:24:49;;;;;;;;;;;23.30;99.90;;;;;;5077453;28;19908;-70
2023/01/22 05:27:16;;;;;;;;;;;23.40;99.90;;;;;;5085023;28;19912;-70
2023/01/22 05:29:42;;;;;;;;;;;23.50;99.90;;;;;;5084205;28;19909;-70
2023/01/22 05:32:09;;;;;;;;;;;23.60;99.90;;;;;;5087754;28;19912;-74
2023/01/22 05:34:35;;;;;;;;;;;23.60;99.90;;;;;;5076344;28;19920;-71
2023/01/22 05:37:02;;;;;;;;;;;23.60;99.90;;;;;;5080385;28;19916;-72
2023/01/22 05:39:29;;;;;;;;;;;23.60;99.90;;;;;;5090758;28;19963;-79
2023/01/22 05:41:55;;;;;;;;;;;23.70;99.90;;;;;;5093515;28;19908;-77
2023/01/22 05:44:22;;;;;;;;;;;23.40;99.90;;;;;;5090189;28;20011;-75
2023/01/22 05:46:49;;;;;;;;;;;23.50;99.90;;;;;;5084131;28;20003;-77
2023/01/22 05:49:15;;;;;;;;;;;23.50;99.90;;;;;;5084332;28;20416;-76
2023/01/22 05:51:42;;;;;;;;;;;23.50;99.90;;;;;;5083829;28;20046;-74
2023/01/22 05:54:09;;;;;;;;;;;23.40;99.90;;;;;;5088509;28;19912;-72
2023/01/22 05:56:36;;;;;;;;;;;23.20;99.90;;;;;;5074333;28;19955;-69
2023/01/22 05:59:02;;;;;;;;;;;23.10;99.90;;;;;;5082811;28;19916;-70
2023/01/22 06:01:29;;;;;;;;;;;23.00;99.90;;;;;;5079593;28;19919;-70
2023/01/22 06:03:56;;;;;;;;;;;22.80;99.90;;;;;;5078131;28;19912;-69
2023/01/22 06:06:25;;;;;;;;;;;22.70;99.90;;;;;;5074794;28;19908;-69
2023/01/22 06:08:52;;;;;;;;;;;22.50;99.90;;;;;;5087749;28;19965;-72
2023/01/22 06:11:22;;;;;;;;;;;22.40;99.90;;;;;;5070866;28;19912;-70
2023/01/22 06:13:49;;;;;;;;;;;22.30;99.90;;;;;;5087380;28;19912;-68
2023/01/22 06:16:15;;;;;;;;;;;22.10;99.90;;;;;;5087941;28;19920;-72
2023/01/22 06:18:42;;;;;;;;;;;22.00;99.90;;;;;;5088229;28;19951;-70
2023/01/22 06:21:09;;;;;;;;;;;22.00;99.90;;;;;;5086888;28;19977;-72
2023/01/22 06:23:35;;;;;;;;;;;21.90;99.90;;;;;;5083344;28;19913;-76
2023/01/22 06:26:04;;;;;;;;;;;21.90;99.90;;;;;;5086459;28;19918;-69
2023/01/22 06:28:30;;;;;;;;;;;22.00;99.90;;;;;;5092433;28;19962;-70
2023/01/22 06:31:01;;;;;;;;;;;22.00;99.90;;;;;;5092720;28;19969;-71
2023/01/22 06:33:27;;;;;;;;;;;22.00;99.90;;;;;;5092685;28;19916;-68
2023/01/22 06:35:54;;;;;;;;;;;22.00;99.90;;;;;;5089087;28;19913;-72
2023/01/22 06:38:21;;;;;;;;;;;22.00;99.90;;;;;;5087600;28;19920;-73
2023/01/22 06:40:55;;;;;;;;;;;22.00;99.90;;;;;;5088458;28;19920;-68
2023/01/22 06:43:22;;;;;;;;;;;22.00;99.90;;;;;;5087564;28;20051;-68
2023/01/22 06:45:49;;;;;;;;;;;21.80;99.90;;;;;;5092909;28;20376;-68
2023/01/22 06:48:16;;;;;;;;;;;21.80;99.90;;;;;;5087282;28;19916;-69
2023/01/22 06:50:43;;;;;;;;;;;21.80;99.90;;;;;;5090265;28;20050;-69
2023/01/22 06:53:09;;;;;;;;;;;21.80;99.90;;;;;;5087792;28;19947;-69
2023/01/22 06:55:36;;;;;;;;;;;22.00;99.90;;;;;;5092670;28;20360;-68
2023/01/22 06:58:03;;;;;;;;;;;22.00;99.90;;;;;;5088021;28;20025;-70
2023/01/22 07:00:30;;;;;;;;;;;22.10;99.90;;;;;;5080850;28;19928;-69
2023/01/22 07:02:56;;;;;;;;;;;22.00;99.90;;;;;;5077084;28;21080;-74
2023/01/22 07:05:23;;;;;;;;;;;22.20;99.90;;;;;;5076498;28;19931;-69
2023/01/22 07:07:52;;;;;;;;;;;22.30;99.90;;;;;;5085494;28;19923;-69
2023/01/22 07:10:19;;;;;;;;;;;22.30;99.90;;;;;;5088560;28;19916;-71
2023/01/22 07:12:46;;;;;;;;;;;22.30;99.90;;;;;;5085857;28;20009;-69
2023/01/22 07:15:13;;;;;;;;;;;22.20;99.90;;;;;;5092414;28;19908;-74
2023/01/22 07:17:39;;;;;;;;;;;22.20;99.90;;;;;;5089000;28;19959;-73
2023/01/22 07:20:06;;;;;;;;;;;22.20;99.90;;;;;;5081479;28;20369;-69
2023/01/22 07:22:33;;;;;;;;;;;22.10;99.90;;;;;;5086448;28;19920;-68
2023/01/22 07:24:59;;;;;;;;;;;22.10;99.90;;;;;;5091272;28;20369;-67
2023/01/22 07:27:26;;;;;;;;;;;22.00;99.90;;;;;;5088701;28;19916;-67
2023/01/22 07:29:53;;;;;;;;;;;21.90;99.90;;;;;;5091425;28;19935;-70
2023/01/22 07:32:19;;;;;;;;;;;21.80;99.90;;;;;;5091971;28;19922;-73
2023/01/22 07:34:46;;;;;;;;;;;21.80;99.90;;;;;;5091847;28;20407;-75
2023/01/22 07:37:13;;;;;;;;;;;21.70;99.90;;;;;;5088191;28;19913;-68
2023/01/22 07:39:39;;;;;;;;;;;21.70;99.90;;;;;;5091311;28;19916;-76
2023/01/22 07:42:06;;;;;;;;;;;21.60;99.90;;;;;;5090193;28;19920;-82
2023/01/22 07:44:39;;;;;;;;;;;21.50;99.90;;;;;;5092671;28;19912;-80
2023/01/22 07:47:06;;;;;;;;;;;21.40;99.90;;;;;;5087032;28;19961;-72
2023/01/22 07:49:32;;;;;;;;;;;21.30;99.90;;;;;;5091102;28;19914;-77
2023/01/22 07:51:59;;;;;;;;;;;21.30;99.90;;;;;;5092016;28;20063;-68
2023/01/22 07:54:25;;;;;;;;;;;21.20;99.90;;;;;;5089868;28;19919;-71
2023/01/22 07:56:52;;;;;;;;;;;21.10;99.90;;;;;;5088882;28;19918;-77
2023/01/22 07:59:19;;;;;;;;;;;20.90;99.90;;;;;;5086616;28;20023;-78
2023/01/22 08:01:45;;;;;;;;;;;20.90;99.90;;;;;;5092877;28;19916;-79
2023/01/22 08:04:12;;;;;;;;;;;20.80;99.90;;;;;;5093198;28;20288;-72
2023/01/22 08:06:39;;;;;;;;;;;20.70;99.90;;;;;;5089127;28;20052;-69
2023/01/22 08:09:06;;;;;;;;;;;20.50;99.90;;;;;;5084843;28;19920;-74
2023/01/22 08:11:32;;;;;;;;;;;20.40;99.90;;;;;;5079152;28;19912;-69
2023/01/22 08:13:59;;;;;;;;;;;20.30;99.90;;;;;;5082885;28;19912;-69
2023/01/22 08:16:25;;;;;;;;;;;20.20;99.90;;;;;;5089709;28;20329;-71
2023/01/22 08:18:52;;;;;;;;;;;20.10;99.90;;;;;;5087388;28;19913;-69
2023/01/22 08:21:19;;;;;;;;;;;20.10;99.90;;;;;;5077494;28;19908;-69
2023/01/22 08:23:46;;;;;;;;;;;20.00;99.90;;;;;;5071979;28;19955;-71
2023/01/22 08:26:13;;;;;;;;;;;20.00;99.90;;;;;;5076317;28;19922;-68
2023/01/22 08:28:40;;;;;;;;;;;19.90;99.90;;;;;;5083397;28;19928;-69
2023/01/22 08:31:06;;;;;;;;;;;20.00;99.90;;;;;;5085992;28;19916;-73
2023/01/22 08:33:33;;;;;;;;;;;19.90;99.90;;;;;;5072487;28;20249;-68
2023/01/22 08:35:59;;;;;;;;;;;19.80;99.90;;;;;;5072454;28;20334;-70
2023/01/22 08:38:26;;;;;;;;;;;19.70;99.90;;;;;;5072345;28;20003;-70
2023/01/22 08:40:57;;;;;;;;;;;19.70;99.90;;;;;;5080271;28;20363;-69
2023/01/22 08:43:23;;;;;;;;;;;19.70;99.90;;;;;;5079989;28;20007;-70
2023/01/22 08:45:50;;;;;;;;;;;19.60;99.90;;;;;;5090248;28;19958;-73
2023/01/22 08:48:17;;;;;;;;;;;19.60;99.90;;;;;;5087693;28;19947;-72
2023/01/22 08:50:43;;;;;;;;;;;19.50;99.90;;;;;;5092668;28;19912;-70
2023/01/22 08:53:10;;;;;;;;;;;19.60;99.90;;;;;;5085831;28;20070;-71
2023/01/22 08:55:37;;;;;;;;;;;19.60;99.90;;;;;;5080080;28;20455;-69
2023/01/22 08:58:03;;;;;;;;;;;19.60;99.90;;;;;;5081968;28;19931;-75
2023/01/22 09:00:30;;;;;;;;;;;19.60;99.90;;;;;;5083761;28;20344;-74
2023/01/22 09:02:58;;;;;;;;;;;19.60;99.90;;;;;;5092164;28;19994;-72
2023/01/22 09:05:25;;;;;;;;;;;19.70;99.90;;;;;;5079762;28;19912;-71
2023/01/22 09:07:52;;;;;;;;;;;19.70;99.90;;;;;;5081572;28;19912;-70
2023/01/22 09:10:19;;;;;;;;;;;19.60;99.90;;;;;;5084012;28;19920;-71
2023/01/22 09:12:45;;;;;;;;;;;19.50;99.90;;;;;;5087222;28;19920;-72
2023/01/22 09:15:12;;;;;;;;;;;19.50;99.90;;;;;;5090788;28;19938;-71
2023/01/22 09:17:40;;;;;;;;;;;19.40;99.90;;;;;;5081472;28;20318;-71
2023/01/22 09:20:07;;;;;;;;;;;19.40;99.90;;;;;;5075288;28;19925;-72
2023/01/22 09:22:33;;;;;;;;;;;19.40;99.90;;;;;;5072084;28;19919;-73
2023/01/22 09:25:00;;;;;;;;;;;19.40;99.90;;;;;;5072029;28;19920;-70
2023/01/22 09:27:27;;;;;;;;;;;19.40;99.90;;;;;;5080228;28;19912;-76
2023/01/22 09:29:53;;;;;;;;;;;19.30;99.90;;;;;;5083963;28;19944;-77
2023/01/22 09:32:20;;;;;;;;;;;19.30;99.90;;;;;;5085798;28;20285;-77
2023/01/22 09:34:47;;;;;;;;;;;19.30;99.90;;;;;;5071801;28;19921;-78
2023/01/22 09:37:14;;;;;;;;;;;19.20;99.90;;;;;;5082978;28;19994;-72
2023/01/22 09:39:40;;;;;;;;;;;19.10;99.90;;;;;;5088136;28;19924;-76
2023/01/22 09:42:10;;;;;;;;;;;19.10;99.90;;;;;;5091485;28;20424;-81
2023/01/22 09:44:37;;;;;;;;;;;19.00;99.90;;;;;;5073536;28;19913;-72
2023/01/22 09:47:06;;;;;;;;;;;18.90;99.90;;;;;;5077054;28;20289;-76
2023/01/22 09:49:36;;;;;;;;;;;18.90;99.90;;;;;;5077692;28;19915;-75
2023/01/22 09:52:04;;;;;;;;;;;18.80;99.90;;;;;;5080181;28;20232;-72
2023/01/22 09:54:31;;;;;;;;;;;18.70;99.90;;;;;;5075415;28;19938;-70
2023/01/22 09:56:59;;;;;;;;;;;18.60;99.90;;;;;;5075129;28;19927;-73
2023/01/22 09:59:27;;;;;;;;;;;18.70;99.90;;;;;;5075281;28;19916;-71
2023/01/22 10:01:58;;;;;;;;;;;18.70;99.90;;;;;;5076572;28;19920;-73
2023/01/22 10:04:30;;;;;;;;;;;18.60;99.90;;;;;;5076719;28;19912;-70
2023/01/22 10:06:57;;;;;;;;;;;18.60;99.90;;;;;;5085570;28;19935;-72
2023/01/22 10:09:29;;;;;;;;;;;18.70;99.90;;;;;;5093674;28;19982;-70
2023/01/22 10:11:56;;;;;;;;;;;18.60;99.90;;;;;;5088771;28;19916;-71
2023/01/22 10:14:24;;;;;;;;;;;18.60;99.90;;;;;;5095339;28;19908;-71
2023/01/22 10:16:51;;;;;;;;;;;18.70;99.90;;;;;;5082793;28;19912;-70
2023/01/22 10:19:21;;;;;;;;;;;18.60;99.90;;;;;;5075177;28;20387;-70
2023/01/22 10:21:57;;;;;;;;;;;18.70;99.90;;;;;;5077770;28;19912;-72
2023/01/22 10:24:23;;;;;;;;;;;18.70;99.90;;;;;;5075148;28;19912;-71
2023/01/22 10:26:53;;;;;;;;;;;18.70;99.90;;;;;;5084503;28;19918;-71
2023/01/22 10:29:26;;;;;;;;;;;18.70;99.90;;;;;;5090471;28;19908;-72
2023/01/22 10:31:56;;;;;;;;;;;18.80;99.90;;;;;;5086124;28;19919;-72
2023/01/22 10:34:34;;;;;;;;;;;18.70;99.90;;;;;;5090502;28;19943;-73
2023/01/22 10:37:03;;;;;;;;;;;18.80;99.90;;;;;;5091664;28;20994;-75
2023/01/22 10:39:40;;;;;;;;;;;18.70;99.90;;;;;;5090693;28;19920;-70
2023/01/22 10:42:14;;;;;;;;;;;18.70;99.90;;;;;;5093791;28;19916;-76
2023/01/22 10:44:41;;;;;;;;;;;18.80;99.90;;;;;;5093121;28;19912;-69
2023/01/22 10:47:11;;;;;;;;;;;18.80;99.90;;;;;;5088413;28;19912;-70
2023/01/22 10:49:37;;;;;;;;;;;18.80;99.90;;;;;;5091906;28;20010;-69
2023/01/22 10:52:05;;;;;;;;;;;18.80;99.90;;;;;;5091785;28;19912;-69
2023/01/22 10:54:42;;;;;;;;;;;18.80;99.90;;;;;;5089512;28;20387;-69
2023/01/22 10:57:18;;;;;;;;;;;18.80;99.90;;;;;;5088552;28;19946;-71
2023/01/22 11:00:04;;;;;;;;;;;18.80;99.90;;;;;;5090058;28;19927;-68
2023/01/22 11:02:32;;;;;;;;;;;18.80;99.90;;;;;;5091852;28;20345;-71
2023/01/22 11:05:18;;;;;;;;;;;18.90;99.90;;;;;;5087457;28;20415;-69
2023/01/22 11:07:50;;;;;;;;;;;19.00;99.90;;;;;;5092092;28;20268;-74
2023/01/22 11:10:19;;;;;;;;;;;19.00;99.90;;;;;;5089473;28;19922;-81
2023/01/22 11:12:51;;;;;;;;;;;18.90;99.90;;;;;;5091760;28;19912;-68
2023/01/22 11:15:21;;;;;;;;;;;18.90;99.90;;;;;;5091225;28;19938;-68
2023/01/22 11:18:06;;;;;;;;;;;18.90;99.90;;;;;;5094000;28;19908;-68
2023/01/22 11:20:33;;;;;;;;;;;18.90;99.90;;;;;;5090056;28;19920;-71
2023/01/22 11:23:08;;;;;;;;;;;18.90;99.90;;;;;;5092366;28;19919;-71
2023/01/22 11:25:44;;;;;;;;;;;18.90;99.90;;;;;;5090890;28;19912;-68
2023/01/22 11:28:20;;;;;;;;;;;18.80;99.90;;;;;;5091167;28;20329;-69
2023/01/22 11:30:49;;;;;;;;;;;18.80;99.90;;;;;;5090970;28;19912;-73
2023/01/22 11:33:16;;;;;;;;;;;18.80;99.90;;;;;;5091555;28;19916;-68
2023/01/22 11:35:49;;;;;;;;;;;18.80;99.90;;;;;;5093851;28;19912;-70
2023/01/22 11:38:15;;;;;;;;;;;18.80;99.90;;;;;;5088244;28;19916;-69
2023/01/22 11:40:42;;;;;;;;;;;18.80;99.90;;;;;;5086401;28;19927;-70
2023/01/22 11:43:21;;;;;;;;;;;18.90;99.90;;;;;;5089880;28;19916;-67
2023/01/22 11:45:55;;;;;;;;;;;18.80;99.90;;;;;;5088561;28;19912;-70
2023/01/22 11:48:28;;;;;;;;;;;18.80;99.90;;;;;;5090121;28;19912;-69
2023/01/22 11:51:15;;;;;;;;;;;18.80;99.90;;;;;;5090803;28;20344;-70
2023/01/22 11:53:48;;;;;;;;;;;18.80;99.90;;;;;;5081988;28;19919;-70
2023/01/22 11:56:19;;;;;;;;;;;18.80;99.90;;;;;;5090615;28;19912;-73
2023/01/22 11:58:48;;;;;;;;;;;18.90;99.90;;;;;;5089432;28;19916;-70
2023/01/22 12:01:22;;;;;;;;;;;18.90;99.90;;;;;;5091683;28;20311;-69
2023/01/22 12:04:01;;;;;;;;;;;18.90;99.90;;;;;;5089446;28;20300;-70
2023/01/22 12:06:28;;;;;;;;;;;18.90;99.90;;;;;;5086681;28;19937;-68
2023/01/22 12:09:00;;;;;;;;;;;18.90;99.90;;;;;;5091620;28;20262;-70
2023/01/22 12:11:27;;;;;;;;;;;18.80;99.90;;;;;;5093150;28;19936;-69
2023/01/22 12:14:12;;;;;;;;;;;18.80;99.90;;;;;;5091991;28;20369;-71
2023/01/22 12:16:41;;;;;;;;;;;18.80;99.90;;;;;;5086865;28;19912;-71
2023/01/22 12:19:20;;;;;;;;;;;18.80;99.90;;;;;;5090129;28;20384;-72
2023/01/22 12:21:55;;;;;;;;;;;18.80;99.90;;;;;;5091158;28;19927;-70
2023/01/22 12:24:43;;;;;;;;;;;18.80;99.90;;;;;;5088589;28;19913;-69
2023/01/22 12:27:16;;;;;;;;;;;18.80;99.90;;;;;;5089907;28;19916;-69
2023/01/22 12:29:44;;;;;;;;;;;18.80;99.90;;;;;;5088963;28;19912;-70
2023/01/22 12:32:14;;;;;;;;;;;18.80;99.90;;;;;;5088252;28;19919;-69
2023/01/22 12:34:40;;;;;;;;;;;18.80;99.90;;;;;;5091303;28;19947;-69
2023/01/22 12:37:09;;;;;;;;;;;18.80;99.90;;;;;;5089554;28;19912;-70
2023/01/22 12:39:41;;;;;;;;;;;18.70;99.90;;;;;;5090165;28;19999;-72
2023/01/22 12:42:13;;;;;;;;;;;18.70;99.90;;;;;;5088074;28;19912;-75
2023/01/22 12:44:45;;;;;;;;;;;18.70;99.90;;;;;;5092226;28;19912;-79
2023/01/22 12:47:21;;;;;;;;;;;18.60;99.90;;;;;;5090268;28;19955;-69
2023/01/22 12:49:52;;;;;;;;;;;18.50;99.90;;;;;;5086607;28;19912;-78
2023/01/22 12:52:38;;;;;;;;;;;18.50;99.90;;;;;;5090117;28;19950;-77
2023/01/22 12:55:21;;;;;;;;;;;18.50;99.90;;;;;;5088328;28;19912;-79
2023/01/22 12:57:49;;;;;;;;;;;18.50;99.90;;;;;;5092892;28;19909;-80
2023/01/22 13:00:20;;;;;;;;;;;18.50;99.90;;;;;;5073031;28;19924;-70
2023/01/22 13:02:47;;;;;;;;;;;18.50;99.90;;;;;;5090105;28;19916;-80
2023/01/22 13:05:16;;;;;;;;;;;18.50;99.90;;;;;;5091215;28;19912;-73
2023/01/22 13:07:43;;;;;;;;;;;18.40;99.90;;;;;;5071948;28;19960;-80
2023/01/22 13:10:29;;;;;;;;;;;18.50;99.90;;;;;;5072323;28;19966;-73
2023/01/22 13:13:14;;;;;;;;;;;18.50;99.90;;;;;;5086175;28;19919;-70
2023/01/22 13:15:41;;;;;;;;;;;18.50;99.90;;;;;;5091220;28;19963;-69
2023/01/22 13:18:18;;;;;;;;;;;18.50;99.90;;;;;;5081891;28;19912;-69
2023/01/22 13:20:56;;;;;;;;;;;18.50;99.90;;;;;;5089460;28;19942;-69
2023/01/22 13:23:23;;;;;;;;;;;18.60;99.90;;;;;;5090679;28;19918;-70
2023/01/22 13:25:54;;;;;;;;;;;18.50;99.90;;;;;;5091387;28;19965;-73
2023/01/22 13:28:21;;;;;;;;;;;18.60;99.90;;;;;;5084781;28;19916;-69
2023/01/22 13:30:56;;;;;;;;;;;18.60;99.90;;;;;;5073138;28;19947;-68
2023/01/22 13:33:23;;;;;;;;;;;18.60;99.90;;;;;;5087262;28;19999;-69
2023/01/22 13:35:49;;;;;;;;;;;18.60;99.90;;;;;;5092348;28;19908;-69
2023/01/22 13:38:27;;;;;;;;;;;18.60;99.90;;;;;;5089636;28;19916;-67
2023/01/22 13:41:06;;;;;;;;;;;18.60;99.90;;;;;;5087253;28;19920;-68
2023/01/22 13:43:33;;;;;;;;;;;18.50;99.90;;;;;;5082159;28;20246;-68
2023/01/22 13:46:00;;;;;;;;;;;18.50;99.90;;;;;;5092648;28;19913;-68
2023/01/22 13:48:26;;;;;;;;;;;18.50;99.90;;;;;;5089899;28;19912;-73
2023/01/22 13:50:56;;;;;;;;;;;18.50;99.90;;;;;;5087827;28;20345;-71
2023/01/22 13:53:25;;;;;;;;;;;18.60;99.90;;;;;;5090567;28;19919;-69
2023/01/22 13:55:52;;;;;;;;;;;18.60;99.90;;;;;;5089513;28;20833;-69
2023/01/22 13:58:40;;;;;;;;;;;18.60;99.90;;;;;;5090335;28;20014;-71
2023/01/22 14:01:08;;;;;;;;;;;18.60;99.90;;;;;;5084830;28;19931;-69
2023/01/22 14:03:35;;;;;;;;;;;18.60;99.90;;;;;;5092540;28;19943;-70
2023/01/22 14:06:07;;;;;;;;;;;18.50;99.90;;;;;;5080591;28;19912;-79
2023/01/22 14:08:44;;;;;;;;;;;18.50;99.90;;;;;;5084504;28;19912;-70
2023/01/22 14:11:10;;;;;;;;;;;18.50;99.90;;;;;;5078173;28;19920;-69
2023/01/22 14:13:41;;;;;;;;;;;18.60;99.90;;;;;;5078539;28;22129;-68
2023/01/22 14:16:09;;;;;;;;;;;18.60;99.90;;;;;;5091827;28;19907;-68
2023/01/22 14:18:36;;;;;;;;;;;18.50;99.90;;;;;;5089842;28;19919;-69
2023/01/22 14:21:03;;;;;;;;;;;18.50;99.90;;;;;;5090136;28;19925;-67
2023/01/22 14:23:29;;;;;;;;;;;18.40;99.90;;;;;;5081546;28;19916;-80
2023/01/22 14:25:57;;;;;;;;;;;18.50;99.90;;;;;;5083590;28;19912;-83
2023/01/22 14:28:24;;;;;;;;;;;18.50;99.90;;;;;;5083079;28;19912;-80
2023/01/22 14:30:51;;;;;;;;;;;18.40;99.90;;;;;;5074991;28;19916;-79
2023/01/22 14:33:19;;;;;;;;;;;18.50;99.90;;;;;;5090017;28;19938;-83